MUC | München Airways

 METAR UND TAF INFORMATION

METAR FOR ESNQ
ADDS - METARS form results

(1602 UTC 05 June 2020)
Data provider http://aviationweather.gov/metar/data/
 
METAR text: ESNQ 051550Z AUTO 07012KT 9999 -RA FEW038/// OVC049/// 11/07 Q1006 REDZ
Conditions at: ESNQ (KIRUNA AIRPORT , SE) observed 1550 UTC 05 June 2020
Temperature: 11.0°C (52°F)
Dewpoint: 7.0°C (45°F) [RH = 76%]
Pressure (altimeter): 29.70 inches Hg (1006.0 mb)
Winds: from the ENE (70 degrees) at 14 MPH (12 knots; 6.2 m/s)
Visibility: 6 or more miles (10+ km)
Ceiling: 4900 feet AGL
Clouds: few clouds at 3800 feet AGL
overcast cloud deck at 4900 feet AGL
Weather: -RA  (light rain)

METAR text: ESNQ 051520Z AUTO 09012KT 9999 -DZ OVC045/// 12/07 Q1006
Conditions at: ESNQ (KIRUNA AIRPORT , SE) observed 1520 UTC 05 June 2020
Temperature: 12.0°C (54°F)
Dewpoint: 7.0°C (45°F) [RH = 71%]
Pressure (altimeter): 29.70 inches Hg (1006.0 mb)
Winds: from the E (90 degrees) at 14 MPH (12 knots; 6.2 m/s)
Visibility: 6 or more miles (10+ km)
Ceiling: 4500 feet AGL
Clouds: overcast cloud deck at 4500 feet AGL
Weather: -DZ  (light drizzle)

Forecast for: ESNQ (KIRUNA AIRPORT , SE)
Text: TAF ESNQ 051130Z 0512/0514 05012KT 9999 SCT025 BKN070
Forecast period: 1200 to 1400 UTC 05 June 2020
Forecast type: FROM: standard forecast or significant change
Winds: from the NE (50 degrees) at 14 MPH (12 knots; 6.2 m/s)
Visibility: 6 or more miles 10+ km)
Ceiling: 7000 feet AGL
Clouds: scattered clouds at 2500 feet AGL
broken clouds at 7000 feet AGL
Weather: no significant weather forecast for this period

 FLUGHAFENKARTE

 RUNWAY INFORMATION
Runway 03 Runway length 8209 ft Runway width 148 ft
Runway elevation 1508 ft Runway displaced threshold 0 ft Runway heading 34
Runway 21 Runway length 8209 ft Runway width 148 ft
Runway elevation 1432 ft Runway displaced threshold 0 ft Runway heading 214

 AIRPORT FREQUENCIES
Type TWR Name TWR Frequency 130.15 MHZ

 AIRPORT NEAR NAVIGATION AIDS
Type VOR-DME Name Kiruna Frequency 115200 KHZ
Type NDB Name Kiruna Frequency 360 KHZ